createdAt,value
2022-07-27T00:01:04.533Z,101858.59
2022-07-27T00:03:37.323Z,101860.41
2022-07-27T00:06:09.349Z,101859.50
2022-07-27T00:08:41.407Z,101856.09
2022-07-27T00:11:13.934Z,101864.91
2022-07-27T00:13:46.228Z,101872.06
2022-07-27T00:16:18.252Z,101865.00
2022-07-27T00:18:50.381Z,101871.13
2022-07-27T00:21:22.481Z,101868.53
2022-07-27T00:23:54.983Z,101859.81
2022-07-27T00:26:26.957Z,101860.72
2022-07-27T00:28:59.567Z,101864.25
2022-07-27T00:31:31.592Z,101869.56
2022-07-27T00:34:03.722Z,101862.56
2022-07-27T00:36:35.805Z,101862.63
2022-07-27T00:39:08.054Z,101863.59
2022-07-27T00:41:40.799Z,101863.66
2022-07-27T00:44:12.913Z,101873.31
2022-07-27T00:46:45.016Z,101863.59
2022-07-27T00:49:17.258Z,101862.69
2022-07-27T00:51:50.938Z,101862.81
2022-07-27T00:54:24.156Z,101862.88
2022-07-27T00:56:57.090Z,101862.09
2022-07-27T00:59:29.190Z,101864.72
2022-07-27T01:02:01.335Z,101859.44
2022-07-27T01:04:35.071Z,101861.31
2022-07-27T01:07:07.982Z,101868.44
2022-07-27T01:09:58.804Z,101864.91
2022-07-27T01:12:32.621Z,101873.63
2022-07-27T01:15:06.190Z,101874.56
2022-07-27T01:17:38.918Z,101876.38
2022-07-27T01:20:11.278Z,101871.13
2022-07-27T01:22:43.256Z,101873.72
2022-07-27T01:25:15.487Z,101875.50
2022-07-27T01:27:47.550Z,101870.28
2022-07-27T01:30:30.333Z,101867.63
2022-07-27T01:33:04.990Z,101864.06
2022-07-27T01:35:39.848Z,101859.69
2022-07-27T01:38:13.153Z,101856.16
2022-07-27T01:40:45.247Z,101859.78
2022-07-27T01:43:17.562Z,101858.91
2022-07-27T01:45:50.066Z,101857.19
2022-07-27T01:48:22.236Z,101854.53
2022-07-27T01:50:55.136Z,101859.00
2022-07-27T01:53:27.089Z,101855.47
2022-07-27T01:55:59.088Z,101857.16
2022-07-27T01:58:31.051Z,101855.34
2022-07-27T02:01:03.108Z,101860.69
2022-07-27T02:03:35.930Z,101851.13
2022-07-27T02:06:09.674Z,101858.25
2022-07-27T02:08:41.752Z,101855.56
2022-07-27T02:11:32.164Z,101850.28
2022-07-27T02:14:04.229Z,101847.66
2022-07-27T02:16:36.316Z,101851.06
2022-07-27T02:19:09.078Z,101843.19
2022-07-27T02:21:43.271Z,101844.91
2022-07-27T02:24:15.237Z,101840.59
2022-07-27T02:26:47.424Z,101845.81
2022-07-27T02:29:21.787Z,101840.56
2022-07-27T02:31:53.776Z,101851.09
2022-07-27T02:34:25.883Z,101847.66
2022-07-27T02:36:57.977Z,101845.09
2022-07-27T02:39:30.128Z,101845.09
2022-07-27T02:42:03.271Z,101842.50
2022-07-27T02:44:35.359Z,101850.47
2022-07-27T02:47:07.794Z,101853.19
2022-07-27T02:49:39.819Z,101847.91
2022-07-27T02:52:11.885Z,101849.66
2022-07-27T02:54:43.907Z,101867.25
2022-07-27T02:57:15.963Z,101857.59
2022-07-27T02:59:47.925Z,101856.72
2022-07-27T03:02:19.898Z,101860.25
2022-07-27T03:04:52.177Z,101857.59
2022-07-27T03:07:24.203Z,101855.03
2022-07-27T03:09:56.155Z,101860.31
2022-07-27T03:12:28.489Z,101859.44
2022-07-27T03:15:00.441Z,101861.19
2022-07-27T03:17:33.132Z,101867.41
2022-07-27T03:20:06.153Z,101856.84
2022-07-27T03:22:42.298Z,101855.09
2022-07-27T03:25:14.246Z,101862.09
2022-07-27T03:27:46.273Z,101860.38
2022-07-27T03:30:18.260Z,101858.69
2022-07-27T03:32:50.343Z,101862.19
2022-07-27T03:35:22.441Z,101870.97
2022-07-27T03:37:54.476Z,101867.50
2022-07-27T03:40:29.518Z,101868.34
2022-07-27T03:43:01.869Z,101869.22
2022-07-27T03:45:34.026Z,101875.38
2022-07-27T03:48:06.440Z,101873.63
2022-07-27T03:50:38.508Z,101870.09
2022-07-27T03:53:10.498Z,101866.56
2022-07-27T03:55:42.449Z,101876.25
2022-07-27T03:58:14.545Z,101874.50
2022-07-27T04:00:46.747Z,101879.78
2022-07-27T04:03:18.928Z,101885.03
2022-07-27T04:05:50.937Z,101884.16
2022-07-27T04:08:22.971Z,101877.22
2022-07-27T04:10:55.060Z,101879.00
2022-07-27T04:13:29.156Z,101878.09
2022-07-27T04:16:01.629Z,101879.81
2022-07-27T04:18:33.704Z,101880.66
2022-07-27T04:21:06.502Z,101881.47
2022-07-27T04:23:38.654Z,101881.53
2022-07-27T04:26:10.677Z,101877.13
2022-07-27T04:28:43.056Z,101875.34
2022-07-27T04:31:17.170Z,101882.38
2022-07-27T04:33:49.978Z,101874.56
2022-07-27T04:36:21.969Z,101881.56
2022-07-27T04:38:54.004Z,101871.88
2022-07-27T04:41:30.364Z,101878.91
2022-07-27T04:44:03.049Z,101876.25
2022-07-27T04:46:35.132Z,101874.41
2022-07-27T04:49:07.260Z,101873.50
2022-07-27T04:51:44.794Z,101878.72
2022-07-27T04:54:16.959Z,101880.47
2022-07-27T04:56:48.990Z,101877.03
2022-07-27T04:59:20.978Z,101870.84
2022-07-27T05:01:56.071Z,101883.16
2022-07-27T05:04:28.293Z,101883.13
2022-07-27T05:07:02.488Z,101888.41
2022-07-27T05:09:34.583Z,101888.38
2022-07-27T05:12:06.890Z,101892.75
2022-07-27T05:14:38.965Z,101892.72
2022-07-27T05:17:10.936Z,101898.81
2022-07-27T05:19:42.941Z,101899.69
2022-07-27T05:22:15.045Z,101903.97
2022-07-27T05:24:47.038Z,101912.75
2022-07-27T05:27:19.074Z,101914.47
2022-07-27T05:29:51.105Z,101909.13
2022-07-27T05:32:25.782Z,101911.66
2022-07-27T05:34:57.910Z,101916.03
2022-07-27T05:37:30.368Z,101911.53
2022-07-27T05:40:04.332Z,101917.63
2022-07-27T05:42:36.925Z,101917.50
2022-07-27T05:45:11.730Z,101924.50
2022-07-27T05:47:43.832Z,101923.59
2022-07-27T05:50:16.867Z,101921.81
2022-07-27T05:52:48.961Z,101923.56
2022-07-27T05:55:21.971Z,101915.66
2022-07-27T05:57:53.961Z,101925.22
2022-07-27T06:00:26.113Z,101911.97
2022-07-27T06:02:58.228Z,101914.59
2022-07-27T06:05:30.296Z,101914.56
2022-07-27T06:08:09.049Z,101918.09
2022-07-27T06:10:41.390Z,101919.75
2022-07-27T06:13:14.027Z,101918.75
2022-07-27T06:15:46.045Z,101916.97
2022-07-27T06:18:18.608Z,101923.03
2022-07-27T06:20:51.609Z,101915.81
2022-07-27T06:23:23.790Z,101921.09
2022-07-27T06:25:57.145Z,101918.31
2022-07-27T06:28:29.289Z,101915.59
2022-07-27T06:31:01.400Z,101928.81
2022-07-27T06:33:34.647Z,101923.59
2022-07-27T06:36:08.587Z,101929.69
2022-07-27T06:38:40.870Z,101930.50
2022-07-27T06:41:12.998Z,101937.53
2022-07-27T06:43:45.066Z,101937.50
2022-07-27T06:46:17.213Z,101939.16
2022-07-27T06:48:49.435Z,101936.63
2022-07-27T06:51:21.646Z,101933.75
2022-07-27T06:53:54.518Z,101938.94
2022-07-27T06:56:26.826Z,101938.91
2022-07-27T06:58:58.851Z,101946.84
2022-07-27T07:01:30.938Z,101951.19
2022-07-27T07:04:03.206Z,101951.00
2022-07-27T07:06:35.545Z,101947.50
2022-07-27T07:09:08.822Z,101951.69
2022-07-27T07:11:41.410Z,101952.41
2022-07-27T07:14:13.434Z,101960.22
2022-07-27T07:16:45.544Z,101956.81
2022-07-27T07:19:17.680Z,101953.94
2022-07-27T07:21:49.782Z,101965.09
2022-07-27T07:24:21.885Z,101961.13
2022-07-27T07:26:53.891Z,101970.97
2022-07-27T07:29:26.009Z,101962.84
2022-07-27T07:31:58.108Z,101981.63
2022-07-27T07:34:30.176Z,101990.50
2022-07-27T07:37:02.208Z,101986.19
2022-07-27T07:39:34.646Z,101978.34
2022-07-27T07:42:06.672Z,101963.28
2022-07-27T07:44:43.408Z,101964.00
2022-07-27T07:47:15.604Z,101957.75
2022-07-27T07:49:47.833Z,101962.81
2022-07-27T07:52:19.932Z,101969.38
2022-07-27T07:54:51.905Z,101965.63
2022-07-27T07:57:23.966Z,101967.31
2022-07-27T07:59:55.955Z,101966.09
2022-07-27T08:02:28.161Z,101964.03
2022-07-27T08:05:01.547Z,101960.38
2022-07-27T08:07:33.607Z,101966.91
2022-07-27T08:10:08.062Z,101969.97
2022-07-27T08:12:44.030Z,101960.78
2022-07-27T08:15:17.750Z,101968.41
2022-07-27T08:17:49.740Z,101957.91
2022-07-27T08:20:23.699Z,101968.53
2022-07-27T08:22:55.683Z,101968.59
2022-07-27T08:25:27.991Z,101964.06
2022-07-27T08:28:00.390Z,101966.16
2022-07-27T08:30:35.136Z,101971.53
2022-07-27T08:33:08.051Z,101967.78
2022-07-27T08:35:40.142Z,101960.09
2022-07-27T08:38:12.751Z,101964.03
2022-07-27T08:40:46.992Z,101967.59
2022-07-27T08:43:25.239Z,101961.75
2022-07-27T08:46:00.997Z,101967.47
2022-07-27T08:48:33.383Z,101957.00
2022-07-27T08:51:07.659Z,101969.47
2022-07-27T08:53:53.023Z,101965.00
2022-07-27T08:56:26.044Z,101964.88
2022-07-27T08:58:58.055Z,101964.44
2022-07-27T09:01:33.310Z,101972.03
2022-07-27T09:04:07.827Z,101977.06
2022-07-27T09:06:53.306Z,101978.19
2022-07-27T09:09:26.605Z,101985.81
2022-07-27T09:12:08.729Z,101989.94
2022-07-27T09:14:42.350Z,101989.84
2022-07-27T09:20:21.320Z,101996.50
2022-07-27T09:22:55.547Z,101989.28
2022-07-27T09:26:01.573Z,101998.59
2022-07-27T09:28:30.627Z,101992.06
2022-07-27T09:31:09.222Z,101995.69
2022-07-27T09:33:46.195Z,101983.28
2022-07-27T09:36:20.731Z,101977.91
2022-07-27T09:39:05.740Z,101974.88
2022-07-27T09:41:48.222Z,101975.88
2022-07-27T09:44:44.900Z,101980.25
2022-07-27T09:47:30.968Z,101964.03
2022-07-27T09:50:23.868Z,101953.13
2022-07-27T09:53:41.706Z,101959.03
2022-07-27T09:56:16.143Z,101968.53
2022-07-27T09:58:57.481Z,101968.56
2022-07-27T10:01:47.642Z,101958.34
2022-07-27T10:04:23.281Z,101958.50
2022-07-27T10:07:04.699Z,101970.06
2022-07-27T10:09:39.651Z,101964.94
2022-07-27T10:12:11.704Z,101966.16
2022-07-27T10:14:43.772Z,101962.44
2022-07-27T10:17:16.086Z,101967.81
2022-07-27T10:19:52.250Z,101968.75
2022-07-27T10:22:58.842Z,101965.50
2022-07-27T10:25:37.311Z,101959.44
2022-07-27T10:28:18.785Z,101965.91
2022-07-27T10:30:54.533Z,101968.56
2022-07-27T10:33:45.189Z,101972.00
2022-07-27T10:36:39.121Z,101980.81
2022-07-27T10:39:11.306Z,101976.91
2022-07-27T10:41:44.012Z,101981.84
2022-07-27T10:44:18.594Z,101980.97
2022-07-27T10:47:01.247Z,101971.91
2022-07-27T10:49:40.533Z,101972.53
2022-07-27T10:52:42.460Z,101964.16
2022-07-27T10:55:34.047Z,101969.75
2022-07-27T10:58:15.084Z,101961.16
2022-07-27T11:00:57.459Z,101960.81
2022-07-27T11:03:42.466Z,101967.44
2022-07-27T11:06:33.063Z,101965.25
2022-07-27T11:10:00.027Z,101971.38
2022-07-27T11:12:03.782Z,101977.13
2022-07-27T11:14:50.108Z,101978.06
2022-07-27T11:20:31.308Z,101981.44
2022-07-27T11:26:17.361Z,101980.50
2022-07-27T11:28:51.095Z,101980.31
2022-07-27T11:31:45.082Z,101985.81
2022-07-27T11:34:17.553Z,101978.75
2022-07-27T11:36:50.478Z,101979.66
2022-07-27T11:39:58.599Z,101977.53
2022-07-27T11:42:21.856Z,101977.94
2022-07-27T11:44:55.682Z,101981.25
2022-07-27T11:47:30.046Z,101974.31
2022-07-27T11:50:11.562Z,101986.78
2022-07-27T11:52:43.729Z,101986.59
2022-07-27T11:55:15.779Z,101998.25
2022-07-27T11:57:47.798Z,101995.03
2022-07-27T12:00:19.907Z,101992.22
2022-07-27T12:02:52.334Z,101994.81
2022-07-27T12:05:24.564Z,101993.13
2022-07-27T12:07:56.827Z,101996.81
2022-07-27T12:10:28.983Z,101998.09
2022-07-27T12:13:01.399Z,101988.63
2022-07-27T12:15:48.696Z,101993.34
2022-07-27T12:18:20.800Z,101995.09
2022-07-27T12:20:54.090Z,101982.88
2022-07-27T12:23:30.074Z,101996.84
2022-07-27T12:26:21.255Z,101985.00
2022-07-27T12:29:12.203Z,101984.16
2022-07-27T12:31:49.609Z,101980.78
2022-07-27T12:34:21.637Z,101979.41
2022-07-27T12:36:53.595Z,101980.22
2022-07-27T12:39:29.968Z,101979.06
2022-07-27T12:42:07.878Z,101978.47
2022-07-27T12:44:43.382Z,101987.59
2022-07-27T12:47:34.315Z,101988.69
2022-07-27T12:50:17.038Z,101989.44
2022-07-27T12:52:51.698Z,101974.66
2022-07-27T12:55:24.307Z,101980.81
2022-07-27T12:57:57.085Z,101981.91
2022-07-27T13:00:33.985Z,101978.69
2022-07-27T13:03:07.317Z,101972.06
2022-07-27T13:05:39.520Z,101970.34
2022-07-27T13:08:11.927Z,101965.38
2022-07-27T13:10:52.593Z,101959.59
2022-07-27T13:13:25.016Z,101960.22
2022-07-27T13:15:57.185Z,101953.63
2022-07-27T13:18:29.218Z,101958.22
2022-07-27T13:21:01.700Z,101960.06
2022-07-27T13:23:33.897Z,101955.09
2022-07-27T13:26:05.899Z,101954.59
2022-07-27T13:28:37.911Z,101941.25
2022-07-27T13:31:09.964Z,101949.88
2022-07-27T13:33:42.111Z,101942.47
2022-07-27T13:36:14.116Z,101944.59
2022-07-27T13:38:46.191Z,101955.00
2022-07-27T13:41:18.488Z,101960.56
2022-07-27T13:43:50.493Z,101960.03
2022-07-27T13:46:22.604Z,101951.78
2022-07-27T13:48:54.908Z,101951.09
2022-07-27T13:51:27.078Z,101943.28
2022-07-27T13:53:59.191Z,101939.09
2022-07-27T13:56:32.615Z,101949.00
2022-07-27T13:59:05.323Z,101946.09
2022-07-27T14:01:38.281Z,101957.28
2022-07-27T14:04:13.110Z,101947.50
2022-07-27T14:06:45.612Z,101950.50
2022-07-27T14:09:19.922Z,101953.66
2022-07-27T14:11:52.961Z,101954.81
2022-07-27T14:14:27.012Z,101969.03
2022-07-27T14:16:59.265Z,101969.00
2022-07-27T14:19:31.379Z,101970.59
2022-07-27T14:22:03.523Z,101960.88
2022-07-27T14:24:38.062Z,101965.66
2022-07-27T14:27:10.761Z,101963.81
2022-07-27T14:29:42.829Z,101971.16
2022-07-27T14:32:14.776Z,101976.47
2022-07-27T14:34:49.507Z,101981.91
2022-07-27T14:37:21.637Z,101977.66
2022-07-27T14:39:53.607Z,101979.22
2022-07-27T14:42:26.185Z,101978.53
2022-07-27T14:44:58.651Z,101979.47
2022-07-27T14:47:30.680Z,101976.31
2022-07-27T14:50:02.742Z,101972.47
2022-07-27T14:52:34.928Z,101961.31
2022-07-27T14:55:08.052Z,101968.47
2022-07-27T14:57:40.223Z,101976.84
2022-07-27T15:00:14.587Z,101969.19
2022-07-27T15:02:47.341Z,101979.78
2022-07-27T15:05:19.530Z,101960.72
2022-07-27T15:07:51.721Z,101962.75
2022-07-27T15:10:23.784Z,101960.88
2022-07-27T15:12:56.045Z,101968.59
2022-07-27T15:15:28.066Z,101964.03
2022-07-27T15:18:00.095Z,101956.22
2022-07-27T15:20:32.225Z,101958.94
2022-07-27T15:23:04.743Z,101954.38
2022-07-27T15:25:36.693Z,101970.91
2022-07-27T15:28:08.800Z,101969.88
2022-07-27T15:30:40.950Z,101969.00
2022-07-27T15:33:13.065Z,101966.81
2022-07-27T15:35:45.303Z,101952.94
2022-07-27T15:38:17.396Z,101964.13
2022-07-27T15:40:49.477Z,101959.50
2022-07-27T15:43:21.706Z,101963.13
2022-07-27T15:45:53.827Z,101967.94
2022-07-27T15:48:26.377Z,101968.41
2022-07-27T15:50:58.812Z,101971.22
2022-07-27T15:53:32.014Z,101972.44
2022-07-27T15:56:04.016Z,101977.56
2022-07-27T15:58:36.116Z,101967.00
2022-07-27T16:01:10.639Z,101970.50
2022-07-27T16:03:44.282Z,101972.41
2022-07-27T16:06:20.354Z,101971.44
2022-07-27T16:08:52.409Z,101965.00
2022-07-27T16:11:24.377Z,101972.22
2022-07-27T16:13:56.510Z,101970.72
2022-07-27T16:16:31.678Z,101972.13
2022-07-27T16:19:12.271Z,101976.19
2022-07-27T16:21:55.170Z,101983.25
2022-07-27T16:24:27.871Z,101985.75
2022-07-27T16:27:01.200Z,101980.50
2022-07-27T16:29:34.814Z,101976.75
2022-07-27T16:32:06.892Z,101974.31
2022-07-27T16:34:39.626Z,101980.91
2022-07-27T16:37:11.607Z,101984.75
2022-07-27T16:39:43.569Z,101980.44
2022-07-27T16:42:15.665Z,101983.41
2022-07-27T16:44:47.842Z,101973.22
2022-07-27T16:47:19.801Z,101975.38
2022-07-27T16:49:51.836Z,101986.63
2022-07-27T16:52:24.086Z,101977.53
2022-07-27T16:54:56.148Z,101978.59
2022-07-27T16:57:28.410Z,101977.56
2022-07-27T17:00:00.407Z,101965.47
2022-07-27T17:02:33.924Z,101974.13
2022-07-27T17:05:07.581Z,101969.81
2022-07-27T17:07:39.630Z,101961.59
2022-07-27T17:10:11.680Z,101967.78
2022-07-27T17:12:58.859Z,101967.03
2022-07-27T17:15:30.977Z,101975.00
2022-07-27T17:18:04.857Z,101984.22
2022-07-27T17:20:37.445Z,101977.91
2022-07-27T17:23:10.222Z,101977.13
2022-07-27T17:25:42.271Z,101967.72
2022-07-27T17:28:14.493Z,101980.13
2022-07-27T17:30:46.703Z,101980.81
2022-07-27T17:33:18.747Z,101973.94
2022-07-27T17:35:50.753Z,101977.84
2022-07-27T17:38:22.769Z,101983.41
2022-07-27T17:40:54.788Z,101980.94
2022-07-27T17:43:26.760Z,101972.97
2022-07-27T17:45:59.228Z,101976.38
2022-07-27T17:48:31.458Z,101985.28
2022-07-27T17:51:05.875Z,101977.94
2022-07-27T17:53:38.421Z,101975.41
2022-07-27T17:56:11.193Z,101980.63
2022-07-27T17:58:43.372Z,101976.53
2022-07-27T18:01:15.597Z,101976.50
2022-07-27T18:03:47.637Z,101980.16
2022-07-27T18:06:19.672Z,101979.31
2022-07-27T18:08:51.645Z,101965.81
2022-07-27T18:11:23.735Z,101980.22
2022-07-27T18:13:58.328Z,101982.88
2022-07-27T18:16:31.868Z,101983.81
2022-07-27T18:19:07.068Z,101977.59
2022-07-27T18:21:39.124Z,101984.88
2022-07-27T18:24:11.210Z,101986.63
2022-07-27T18:26:43.239Z,101987.53
2022-07-27T18:29:16.286Z,102000.75
2022-07-27T18:31:48.509Z,101997.53
2022-07-27T18:34:20.735Z,102004.72
2022-07-27T18:36:52.789Z,102002.28
2022-07-27T18:39:33.980Z,102004.19
2022-07-27T18:42:06.203Z,102013.78
2022-07-27T18:44:39.139Z,102007.47
2022-07-27T18:47:11.292Z,102022.56
2022-07-27T18:49:43.307Z,102022.63
2022-07-27T18:52:15.633Z,102018.22
2022-07-27T18:54:47.578Z,102022.72
2022-07-27T18:57:20.367Z,102017.59
2022-07-27T18:59:53.584Z,102025.69
2022-07-27T19:02:25.638Z,102026.63
2022-07-27T19:04:57.918Z,102031.16
2022-07-27T19:07:30.928Z,102040.13
2022-07-27T19:10:05.450Z,102035.91
2022-07-27T19:12:37.617Z,102038.63
2022-07-27T19:15:10.007Z,102044.81
2022-07-27T19:17:42.019Z,102041.31
2022-07-27T19:20:17.422Z,102053.84
2022-07-27T19:22:50.145Z,102056.59
2022-07-27T19:25:22.693Z,102052.19
2022-07-27T19:27:54.813Z,102054.91
2022-07-27T19:30:27.556Z,102057.72
2022-07-27T19:32:59.753Z,102055.06
2022-07-27T19:35:31.764Z,102060.47
2022-07-27T19:38:03.997Z,102063.22
2022-07-27T19:40:45.826Z,102074.75
2022-07-27T19:43:19.710Z,102071.38
2022-07-27T19:45:52.254Z,102072.31
2022-07-27T19:48:24.864Z,102073.31
2022-07-27T19:50:59.963Z,102075.97
2022-07-27T19:53:35.731Z,102076.06
2022-07-27T19:56:08.519Z,102075.94
2022-07-27T19:58:40.612Z,102078.59
2022-07-27T20:01:13.392Z,102084.00
2022-07-27T20:03:52.304Z,102081.31
2022-07-27T20:06:26.756Z,102087.53
2022-07-27T20:08:59.884Z,102088.41
2022-07-27T20:11:33.758Z,102084.94
2022-07-27T20:14:05.836Z,102085.00
2022-07-27T20:16:38.903Z,102086.78
2022-07-27T20:19:11.336Z,102086.78
2022-07-27T20:21:43.677Z,102092.94
2022-07-27T20:24:15.845Z,102088.56
2022-07-27T20:26:49.248Z,102089.44
2022-07-27T20:29:21.461Z,102095.69
2022-07-27T20:31:55.700Z,102096.56
2022-07-27T20:34:27.755Z,102094.81
2022-07-27T20:37:00.615Z,102097.50
2022-07-27T20:39:33.207Z,102091.41
2022-07-27T20:42:05.266Z,102094.97
2022-07-27T20:44:37.314Z,102100.22
2022-07-27T20:47:09.384Z,102089.69
2022-07-27T20:49:41.405Z,102097.66
2022-07-27T20:52:13.852Z,102085.41
2022-07-27T20:54:45.913Z,102086.34
2022-07-27T20:57:17.893Z,102086.31
2022-07-27T20:59:49.901Z,102087.19
2022-07-27T21:02:22.031Z,102086.28
2022-07-27T21:04:55.087Z,102087.22
2022-07-27T21:07:27.236Z,102083.84
2022-07-27T21:09:59.356Z,102077.66
2022-07-27T21:12:31.541Z,102077.66
2022-07-27T21:15:07.536Z,102077.69
2022-07-27T21:17:43.397Z,102075.06
2022-07-27T21:20:15.612Z,102076.88
2022-07-27T21:23:07.632Z,102079.53
2022-07-27T21:25:44.125Z,102079.56
2022-07-27T21:28:18.331Z,102081.47
2022-07-27T21:30:51.134Z,102077.94
2022-07-27T21:33:23.296Z,102082.31
2022-07-27T21:35:55.361Z,102081.44
2022-07-27T21:38:27.435Z,102084.94
2022-07-27T21:40:59.385Z,102083.19
2022-07-27T21:43:32.280Z,102077.03
2022-07-27T21:46:04.291Z,102092.88
2022-07-27T21:48:36.421Z,102086.75
2022-07-27T21:51:08.842Z,102087.63
2022-07-27T21:53:40.819Z,102092.91
2022-07-27T21:56:15.346Z,102087.69
2022-07-27T21:58:48.161Z,102093.03
2022-07-27T22:01:20.316Z,102093.03
2022-07-27T22:03:52.791Z,102084.22
2022-07-27T22:06:24.796Z,102084.19
2022-07-27T22:08:56.792Z,102081.53
2022-07-27T22:11:28.780Z,102077.16
2022-07-27T22:14:00.842Z,102076.31
2022-07-27T22:16:32.843Z,102086.88
2022-07-27T22:19:05.119Z,102085.97
2022-07-27T22:21:37.168Z,102084.19
2022-07-27T22:24:09.217Z,102092.09
2022-07-27T22:26:41.377Z,102099.19
2022-07-27T22:29:13.359Z,102088.59
2022-07-27T22:31:45.454Z,102093.81
2022-07-27T22:34:17.777Z,102098.19
2022-07-27T22:36:50.562Z,102097.25
2022-07-27T22:39:22.698Z,102091.13
2022-07-27T22:41:54.727Z,102092.03
2022-07-27T22:44:26.691Z,102099.94
2022-07-27T22:46:58.621Z,102092.00
2022-07-27T22:49:30.679Z,102097.31
2022-07-27T22:52:06.646Z,102100.81
2022-07-27T22:54:39.004Z,102096.41
2022-07-27T22:57:11.163Z,102102.59
2022-07-27T22:59:43.172Z,102102.59
2022-07-27T23:02:15.104Z,102100.84
2022-07-27T23:04:47.181Z,102101.72
2022-07-27T23:07:19.220Z,102099.94
2022-07-27T23:09:51.431Z,102099.03
2022-07-27T23:12:23.777Z,102101.69
2022-07-27T23:14:55.853Z,102099.94
2022-07-27T23:17:27.811Z,102095.56
2022-07-27T23:19:59.815Z,102097.31
2022-07-27T23:22:31.802Z,102100.00
2022-07-27T23:25:07.354Z,102097.44
2022-07-27T23:27:39.435Z,102101.94
2022-07-27T23:30:11.870Z,102099.28
2022-07-27T23:32:43.851Z,102095.81
2022-07-27T23:35:16.579Z,102099.41
2022-07-27T23:37:48.617Z,102102.03
2022-07-27T23:40:20.668Z,102105.56
2022-07-27T23:42:52.689Z,102104.78
2022-07-27T23:45:24.735Z,102099.56
2022-07-27T23:47:56.723Z,102097.00
2022-07-27T23:50:28.754Z,102099.63
2022-07-27T23:53:00.759Z,102098.84
2022-07-27T23:55:32.746Z,102105.09
2022-07-27T23:58:04.904Z,102098.97
